Time;durP1;ratioP1;P1;durP2;ratioP2;P2;SDS_P1;SDS_P2;PMS_P1;PMS_P2;Temp;Humidity;BMP_temperature;BMP_pressure;BME280_temperature;BME280_humidity;BME280_pressure;Samples;Min_cycle;Max_cycle;Signal;HPM_P1;HPM_P2
2021/07/27 00:00:58;;;;;;;18.73;8.73;;;;;;;;;;1506071;39;20023;-61
2021/07/27 00:01:59;;;;;;;20.75;8.95;;;;;;;;;;1506021;39;20292;-61
2021/07/27 00:03:01;;;;;;;17.90;9.88;;;;;;;;;;1506158;39;20030;-60
2021/07/27 00:04:02;;;;;;;18.83;9.23;;;;;;;;;;1506042;39;20041;-60
2021/07/27 00:05:04;;;;;;;18.88;9.48;;;;;;;;;;1506032;39;20061;-60
2021/07/27 00:06:05;;;;;;;20.00;9.48;;;;;;;;;;1506205;39;20018;-60
2021/07/27 00:07:07;;;;;;;14.70;8.30;;;;;;;;;;1506214;39;20067;-60
2021/07/27 00:08:08;;;;;;;17.33;8.77;;;;;;;;;;1506108;39;20114;-60
2021/07/27 00:09:10;;;;;;;19.90;9.85;;;;;;;;;;1506073;39;20034;-61
2021/07/27 00:10:11;;;;;;;16.00;9.18;;;;;;;;;;1506063;39;20292;-59
2021/07/27 00:11:13;;;;;;;21.52;8.98;;;;;;;;;;1506147;39;20031;-60
2021/07/27 00:12:14;;;;;;;14.32;8.13;;;;;;;;;;1506215;39;20023;-59
2021/07/27 00:13:16;;;;;;;18.05;9.02;;;;;;;;;;1506157;39;20023;-60
2021/07/27 00:14:16;;;;;;;16.98;8.13;;;;;;;;;;1506187;39;20029;-60
2021/07/27 00:15:18;;;;;;;25.88;9.80;;;;;;;;;;1505905;39;20038;-61
2021/07/27 00:16:20;;;;;;;21.83;8.90;;;;;;;;;;1506106;39;20286;-59
2021/07/27 00:17:24;;;;;;;16.60;8.68;;;;;;;;;;1506020;39;20274;-61
2021/07/27 00:18:25;;;;;;;15.75;8.52;;;;;;;;;;1505953;39;20393;-60
2021/07/27 00:19:27;;;;;;;14.70;8.52;;;;;;;;;;1505927;39;20023;-59
2021/07/27 00:20:28;;;;;;;18.48;9.00;;;;;;;;;;1505989;39;20335;-60
2021/07/27 00:21:30;;;;;;;18.15;9.15;;;;;;;;;;1506119;39;20049;-60
2021/07/27 00:22:30;;;;;;;14.95;8.43;;;;;;;;;;1506099;39;20025;-59
2021/07/27 00:23:33;;;;;;;13.90;9.10;;;;;;;;;;1506037;39;20063;-60
2021/07/27 00:24:34;;;;;;;14.82;7.90;;;;;;;;;;1505986;39;20033;-61
2021/07/27 00:25:38;;;;;;;17.35;9.55;;;;;;;;;;1506021;39;20070;-60
2021/07/27 00:26:39;;;;;;;14.45;8.82;;;;;;;;;;1505963;39;20019;-61
2021/07/27 00:27:41;;;;;;;15.32;9.20;;;;;;;;;;1506083;39;20031;-60
2021/07/27 00:28:43;;;;;;;14.85;8.32;;;;;;;;;;1505956;39;20032;-61
2021/07/27 00:29:45;;;;;;;16.27;8.48;;;;;;;;;;1505931;39;20027;-61
2021/07/27 00:30:46;;;;;;;16.83;9.50;;;;;;;;;;1505960;39;20019;-61
2021/07/27 00:31:50;;;;;;;15.93;8.10;;;;;;;;;;1506046;39;20022;-61
2021/07/27 00:32:50;;;;;;;15.93;9.25;;;;;;;;;;1505866;39;20018;-60
2021/07/27 00:33:53;;;;;;;18.33;9.27;;;;;;;;;;1506041;39;20400;-59
2021/07/27 00:36:03;;;;;;;16.75;9.20;;;;;;;;;;1483722;40;20403;-64
2021/07/27 00:37:04;;;;;;;15.95;8.60;;;;;;;;;;1485013;40;20040;-64
2021/07/27 00:38:09;;;;;;;17.65;8.45;;;;;;;;;;1484874;40;20032;-64
2021/07/27 00:39:10;;;;;;;15.90;8.00;;;;;;;;;;1484950;40;20048;-64
2021/07/27 00:40:13;;;;;;;15.23;7.93;;;;;;;;;;1484793;40;20025;-63
2021/07/27 00:41:15;;;;;;;15.73;8.43;;;;;;;;;;1484874;40;20388;-64
2021/07/27 00:42:17;;;;;;;16.80;8.80;;;;;;;;;;1485066;40;20025;-64
2021/07/27 00:43:19;;;;;;;17.58;8.80;;;;;;;;;;1484377;40;20032;-64
2021/07/27 00:44:21;;;;;;;13.27;8.02;;;;;;;;;;1484357;40;20081;-64
2021/07/27 00:45:22;;;;;;;13.68;7.53;;;;;;;;;;1484770;40;20040;-64
2021/07/27 00:46:24;;;;;;;16.98;8.85;;;;;;;;;;1484876;40;20305;-63
2021/07/27 00:47:26;;;;;;;16.13;8.25;;;;;;;;;;1484769;40;20021;-64
2021/07/27 00:48:27;;;;;;;16.52;8.68;;;;;;;;;;1484571;40;20025;-64
2021/07/27 00:49:29;;;;;;;13.95;8.60;;;;;;;;;;1484808;40;20388;-64
2021/07/27 00:50:31;;;;;;;15.80;8.82;;;;;;;;;;1484858;40;20025;-64
2021/07/27 00:51:33;;;;;;;18.42;8.93;;;;;;;;;;1484868;40;20032;-64
2021/07/27 00:52:34;;;;;;;16.40;8.38;;;;;;;;;;1484766;40;20025;-64
2021/07/27 00:53:37;;;;;;;21.08;8.70;;;;;;;;;;1484245;40;20037;-64
2021/07/27 00:54:38;;;;;;;16.65;8.70;;;;;;;;;;1484419;40;20028;-64
2021/07/27 00:55:40;;;;;;;14.93;8.50;;;;;;;;;;1484817;40;20502;-64
2021/07/27 00:56:42;;;;;;;17.02;8.82;;;;;;;;;;1484755;40;20295;-63
2021/07/27 00:57:44;;;;;;;14.77;8.35;;;;;;;;;;1484963;40;20076;-64
2021/07/27 00:58:45;;;;;;;16.75;8.02;;;;;;;;;;1484696;40;20025;-64
2021/07/27 00:59:47;;;;;;;16.92;8.52;;;;;;;;;;1484856;40;20024;-63
2021/07/27 01:00:48;;;;;;;15.23;8.35;;;;;;;;;;1484851;40;20021;-64
2021/07/27 01:01:50;;;;;;;14.73;8.23;;;;;;;;;;1484824;40;20052;-64
2021/07/27 01:02:53;;;;;;;14.02;8.02;;;;;;;;;;1484816;40;20036;-64
2021/07/27 01:03:55;;;;;;;12.85;7.78;;;;;;;;;;1484856;40;20384;-64
2021/07/27 01:04:55;;;;;;;15.25;8.57;;;;;;;;;;1484782;40;20021;-64
2021/07/27 01:05:59;;;;;;;13.43;8.18;;;;;;;;;;1484852;40;20040;-63
2021/07/27 01:07:00;;;;;;;18.23;7.85;;;;;;;;;;1484800;40;20047;-64
2021/07/27 01:08:02;;;;;;;14.00;8.25;;;;;;;;;;1484843;40;20287;-64
2021/07/27 01:09:02;;;;;;;16.50;8.50;;;;;;;;;;1484733;40;20395;-64
2021/07/27 01:10:05;;;;;;;17.85;8.75;;;;;;;;;;1484788;40;20031;-64
2021/07/27 01:11:07;;;;;;;14.25;8.15;;;;;;;;;;1484842;40;20028;-64
2021/07/27 01:12:08;;;;;;;16.02;8.68;;;;;;;;;;1484731;40;20024;-64
2021/07/27 01:13:10;;;;;;;14.85;8.30;;;;;;;;;;1484960;40;20025;-64
2021/07/27 01:14:11;;;;;;;17.27;8.15;;;;;;;;;;1484868;40;20040;-64
2021/07/27 01:15:13;;;;;;;14.25;8.38;;;;;;;;;;1484743;40;20466;-63
2021/07/27 01:16:14;;;;;;;15.82;8.77;;;;;;;;;;1484762;40;20028;-64
2021/07/27 01:17:16;;;;;;;15.48;9.20;;;;;;;;;;1484809;40;20039;-63
2021/07/27 01:18:22;;;;;;;17.20;9.35;;;;;;;;;;1484810;40;20319;-64
2021/07/27 01:19:36;;;;;;;18.77;10.07;;;;;;;;;;1484828;40;20029;-63
2021/07/27 01:20:54;;;;;;;19.90;8.75;;;;;;;;;;1484933;40;20021;-64
2021/07/27 01:38:13;;;;;;;19.75;9.60;;;;;;;;;;1484677;40;20056;-63
2021/07/27 01:40:43;;;;;;;17.42;8.95;;;;;;;;;;1484689;40;20028;-63
2021/07/27 01:43:03;;;;;;;17.05;8.35;;;;;;;;;;1484735;40;20443;-63
2021/07/27 01:44:05;;;;;;;16.70;8.75;;;;;;;;;;1484803;40;20029;-63
2021/07/27 01:45:24;;;;;;;21.30;8.52;;;;;;;;;;1484646;40;20407;-63
2021/07/27 01:46:25;;;;;;;14.57;7.95;;;;;;;;;;1484910;40;20380;-64
2021/07/27 01:47:26;;;;;;;13.55;8.27;;;;;;;;;;1484644;40;20296;-64
2021/07/27 01:48:36;;;;;;;21.55;8.82;;;;;;;;;;1484804;40;20054;-63
2021/07/27 01:49:38;;;;;;;17.85;8.88;;;;;;;;;;1484846;40;20396;-64
2021/07/27 01:50:40;;;;;;;15.02;8.20;;;;;;;;;;1484715;40;20299;-64
2021/07/27 01:51:45;;;;;;;14.50;8.10;;;;;;;;;;1484646;40;20021;-64
2021/07/27 01:52:49;;;;;;;15.43;8.40;;;;;;;;;;1484697;40;20038;-64
2021/07/27 01:53:52;;;;;;;19.70;8.55;;;;;;;;;;1484638;40;20041;-64
2021/07/27 01:54:55;;;;;;;13.88;8.43;;;;;;;;;;1484587;40;20032;-64
2021/07/27 01:55:56;;;;;;;17.77;9.55;;;;;;;;;;1484633;40;20064;-64
2021/07/27 01:56:58;;;;;;;14.43;8.80;;;;;;;;;;1484796;40;20025;-64
2021/07/27 01:57:59;;;;;;;18.30;8.40;;;;;;;;;;1484549;40;20021;-64
2021/07/27 01:59:01;;;;;;;17.45;9.23;;;;;;;;;;1484671;40;20269;-64
2021/07/27 02:00:04;;;;;;;16.58;8.55;;;;;;;;;;1484153;40;20031;-64
2021/07/27 02:01:06;;;;;;;13.75;8.48;;;;;;;;;;1484651;40;20130;-64
2021/07/27 02:02:07;;;;;;;19.85;8.80;;;;;;;;;;1484586;40;20035;-64
2021/07/27 02:03:09;;;;;;;16.70;8.40;;;;;;;;;;1484799;40;20025;-64
2021/07/27 02:04:10;;;;;;;21.55;9.00;;;;;;;;;;1484577;40;20025;-64
2021/07/27 02:05:12;;;;;;;14.93;8.25;;;;;;;;;;1484543;40;20032;-64
2021/07/27 02:06:13;;;;;;;15.40;8.10;;;;;;;;;;1484629;40;20269;-64
2021/07/27 02:07:14;;;;;;;15.30;8.45;;;;;;;;;;1484686;40;20036;-64
2021/07/27 02:08:15;;;;;;;18.02;8.35;;;;;;;;;;1484595;40;20032;-64
2021/07/27 02:09:18;;;;;;;18.38;8.32;;;;;;;;;;1484661;40;20031;-64
2021/07/27 02:10:19;;;;;;;17.50;8.77;;;;;;;;;;1484628;40;20051;-64
2021/07/27 02:11:26;;;;;;;15.57;8.27;;;;;;;;;;1484757;40;20021;-64
2021/07/27 02:12:35;;;;;;;17.30;8.27;;;;;;;;;;1484611;40;20037;-64
2021/07/27 02:13:48;;;;;;;14.38;7.78;;;;;;;;;;1484713;40;20029;-62
2021/07/27 02:15:06;;;;;;;18.25;8.77;;;;;;;;;;1484004;40;20029;-62
2021/07/27 02:16:08;;;;;;;16.92;7.80;;;;;;;;;;1484359;40;20021;-62
2021/07/27 02:17:09;;;;;;;18.63;8.63;;;;;;;;;;1483990;40;20032;-62
2021/07/27 02:18:11;;;;;;;19.65;9.35;;;;;;;;;;1484186;40;20077;-62
2021/07/27 02:19:12;;;;;;;22.00;9.02;;;;;;;;;;1484501;40;20384;-62
2021/07/27 02:20:14;;;;;;;17.05;8.13;;;;;;;;;;1484781;40;20031;-62
2021/07/27 02:21:15;;;;;;;15.45;9.10;;;;;;;;;;1484593;40;20021;-62
2021/07/27 02:22:18;;;;;;;16.67;8.48;;;;;;;;;;1484656;40;20041;-62
2021/07/27 02:23:19;;;;;;;18.08;7.43;;;;;;;;;;1484633;40;20405;-62
2021/07/27 02:24:22;;;;;;;18.30;9.00;;;;;;;;;;1484715;40;20031;-61
2021/07/27 02:25:23;;;;;;;18.48;7.53;;;;;;;;;;1484451;40;20032;-62
2021/07/27 02:26:25;;;;;;;21.83;8.57;;;;;;;;;;1484726;40;20025;-62
2021/07/27 02:27:26;;;;;;;18.90;8.10;;;;;;;;;;1484626;40;20032;-62
2021/07/27 02:28:28;;;;;;;15.88;7.78;;;;;;;;;;1484773;40;20029;-61
2021/07/27 02:29:28;;;;;;;15.43;8.23;;;;;;;;;;1484714;40;20025;-62
2021/07/27 02:30:33;;;;;;;17.42;8.32;;;;;;;;;;1484612;40;20410;-63
2021/07/27 02:31:40;;;;;;;16.70;7.90;;;;;;;;;;1484539;40;20025;-64
2021/07/27 02:32:43;;;;;;;13.23;8.30;;;;;;;;;;1484707;40;20028;-64
2021/07/27 02:33:44;;;;;;;15.85;8.45;;;;;;;;;;1484482;40;20033;-64
2021/07/27 02:34:45;;;;;;;19.33;7.85;;;;;;;;;;1484604;40;20036;-64
2021/07/27 02:35:46;;;;;;;16.15;8.05;;;;;;;;;;1484622;40;20380;-64
2021/07/27 02:36:48;;;;;;;15.85;7.72;;;;;;;;;;1484484;40;20025;-64
2021/07/27 02:37:49;;;;;;;18.35;7.53;;;;;;;;;;1484606;40;20384;-64
2021/07/27 02:38:51;;;;;;;18.80;7.95;;;;;;;;;;1484748;40;20027;-64
2021/07/27 02:39:53;;;;;;;13.75;7.53;;;;;;;;;;1484487;40;20025;-64
2021/07/27 02:40:55;;;;;;;18.15;8.65;;;;;;;;;;1484596;40;20072;-64
2021/07/27 02:41:55;;;;;;;20.88;8.45;;;;;;;;;;1484492;40;20319;-64
2021/07/27 02:43:00;;;;;;;22.13;8.35;;;;;;;;;;1484578;40;20029;-64
2021/07/27 02:44:03;;;;;;;15.23;7.97;;;;;;;;;;1484622;40;20159;-64
2021/07/27 02:45:05;;;;;;;24.58;9.05;;;;;;;;;;1484449;40;20073;-64
2021/07/27 02:46:06;;;;;;;19.20;8.48;;;;;;;;;;1484491;40;20028;-65
2021/07/27 02:47:08;;;;;;;16.63;8.25;;;;;;;;;;1484533;40;20032;-64
2021/07/27 02:48:09;;;;;;;12.95;7.20;;;;;;;;;;1484610;40;20032;-64
2021/07/27 02:49:11;;;;;;;15.70;7.80;;;;;;;;;;1484667;40;20021;-63
2021/07/27 02:50:12;;;;;;;16.25;7.75;;;;;;;;;;1484545;40;20021;-64
2021/07/27 02:51:14;;;;;;;16.67;7.97;;;;;;;;;;1484543;40;20055;-63
2021/07/27 02:52:14;;;;;;;13.57;7.75;;;;;;;;;;1484494;40;20021;-64
2021/07/27 02:53:16;;;;;;;19.50;8.98;;;;;;;;;;1484473;40;20021;-64
2021/07/27 02:54:17;;;;;;;17.75;8.82;;;;;;;;;;1484475;40;20032;-64
2021/07/27 02:55:20;;;;;;;14.45;7.72;;;;;;;;;;1484524;40;20029;-64
2021/07/27 02:56:21;;;;;;;18.98;7.03;;;;;;;;;;1484467;40;20388;-64
2021/07/27 02:57:23;;;;;;;20.23;8.43;;;;;;;;;;1484606;40;20029;-64
2021/07/27 02:58:31;;;;;;;15.40;8.38;;;;;;;;;;1484559;40;20033;-64
2021/07/27 02:59:33;;;;;;;18.73;8.48;;;;;;;;;;1484576;40;20025;-64
2021/07/27 03:00:34;;;;;;;19.10;8.25;;;;;;;;;;1484443;40;20025;-64
2021/07/27 03:01:36;;;;;;;17.00;7.90;;;;;;;;;;1483966;40;20289;-64
2021/07/27 03:02:37;;;;;;;16.45;8.07;;;;;;;;;;1484040;40;20024;-64
2021/07/27 03:03:39;;;;;;;17.45;8.57;;;;;;;;;;1484508;40;20287;-64
2021/07/27 03:04:39;;;;;;;18.75;7.97;;;;;;;;;;1484593;40;20025;-64
2021/07/27 03:05:41;;;;;;;14.18;7.97;;;;;;;;;;1484479;40;20043;-64
2021/07/27 03:06:46;;;;;;;16.83;8.40;;;;;;;;;;1484401;40;20036;-64
2021/07/27 03:07:51;;;;;;;19.98;8.23;;;;;;;;;;1484541;40;20025;-64
2021/07/27 03:09:04;;;;;;;17.17;8.02;;;;;;;;;;1484444;40;20025;-64
2021/07/27 03:10:18;;;;;;;17.40;8.13;;;;;;;;;;1484654;40;20265;-64
2021/07/27 03:11:21;;;;;;;13.52;7.88;;;;;;;;;;1484418;40;20362;-64
2021/07/27 03:12:23;;;;;;;13.45;7.80;;;;;;;;;;1484548;40;20376;-64
2021/07/27 03:13:23;;;;;;;16.60;8.48;;;;;;;;;;1484430;40;20411;-64
2021/07/27 03:14:25;;;;;;;15.15;8.00;;;;;;;;;;1484502;40;20029;-64
2021/07/27 03:15:28;;;;;;;15.43;7.72;;;;;;;;;;1484401;40;20024;-64
2021/07/27 03:16:30;;;;;;;14.00;7.80;;;;;;;;;;1484356;40;20032;-64
2021/07/27 03:17:31;;;;;;;15.30;7.93;;;;;;;;;;1484499;40;20036;-64
2021/07/27 03:18:33;;;;;;;16.83;7.95;;;;;;;;;;1484366;40;20020;-64
2021/07/27 03:19:34;;;;;;;14.55;7.75;;;;;;;;;;1483796;40;20475;-64
2021/07/27 03:20:36;;;;;;;14.73;8.15;;;;;;;;;;1483961;40;20029;-64
2021/07/27 03:21:37;;;;;;;15.60;8.27;;;;;;;;;;1484410;40;20020;-64
2021/07/27 03:22:40;;;;;;;15.10;7.65;;;;;;;;;;1484506;40;20024;-64
2021/07/27 03:23:41;;;;;;;13.82;7.88;;;;;;;;;;1484413;40;20280;-64
2021/07/27 03:24:43;;;;;;;13.80;7.75;;;;;;;;;;1484389;40;20029;-64
2021/07/27 03:25:44;;;;;;;16.77;8.05;;;;;;;;;;1484362;40;20028;-64
2021/07/27 03:26:47;;;;;;;16.40;8.52;;;;;;;;;;1484475;40;20040;-64
2021/07/27 03:27:49;;;;;;;15.98;8.85;;;;;;;;;;1484370;40;20021;-64
2021/07/27 03:28:51;;;;;;;16.75;7.97;;;;;;;;;;1484335;40;20399;-64
2021/07/27 03:29:52;;;;;;;14.80;7.72;;;;;;;;;;1484431;40;20029;-64
2021/07/27 03:30:54;;;;;;;17.25;7.93;;;;;;;;;;1484463;40;20021;-64
2021/07/27 03:31:56;;;;;;;14.65;7.70;;;;;;;;;;1484355;40;20292;-65
2021/07/27 03:32:57;;;;;;;16.50;8.48;;;;;;;;;;1484321;40;20028;-64
2021/07/27 03:34:00;;;;;;;18.15;8.00;;;;;;;;;;1484361;40;20292;-64
2021/07/27 03:35:01;;;;;;;13.43;7.18;;;;;;;;;;1484260;40;20380;-65
2021/07/27 03:36:04;;;;;;;13.38;7.03;;;;;;;;;;1484481;40;20380;-64
2021/07/27 03:37:05;;;;;;;17.20;7.70;;;;;;;;;;1483781;40;20028;-64
2021/07/27 03:38:06;;;;;;;14.00;6.65;;;;;;;;;;1483948;40;20032;-64
2021/07/27 03:39:09;;;;;;;16.08;7.60;;;;;;;;;;1484414;40;20295;-64
2021/07/27 03:40:11;;;;;;;15.48;8.50;;;;;;;;;;1483905;40;20100;-64
2021/07/27 03:41:13;;;;;;;20.70;7.55;;;;;;;;;;1483987;40;20029;-64
2021/07/27 03:42:15;;;;;;;14.15;7.30;;;;;;;;;;1483885;40;20017;-64
2021/07/27 03:43:17;;;;;;;19.67;8.93;;;;;;;;;;1483945;40;20048;-64
2021/07/27 03:44:18;;;;;;;15.30;7.82;;;;;;;;;;1484343;40;20028;-64
2021/07/27 03:45:20;;;;;;;14.68;7.78;;;;;;;;;;1484341;40;20031;-64
2021/07/27 03:46:20;;;;;;;15.82;8.70;;;;;;;;;;1484285;40;20024;-64
2021/07/27 03:47:22;;;;;;;12.98;7.00;;;;;;;;;;1484481;40;20029;-64
2021/07/27 03:48:23;;;;;;;13.10;7.72;;;;;;;;;;1484301;40;20029;-64
2021/07/27 03:49:25;;;;;;;11.98;7.60;;;;;;;;;;1484377;40;20029;-64
2021/07/27 03:50:26;;;;;;;14.13;7.63;;;;;;;;;;1484450;40;20024;-64
2021/07/27 03:51:28;;;;;;;13.98;7.53;;;;;;;;;;1484401;40;20478;-64
2021/07/27 03:52:28;;;;;;;11.25;6.82;;;;;;;;;;1484300;40;20028;-64
2021/07/27 03:53:30;;;;;;;15.57;8.20;;;;;;;;;;1484506;40;20021;-64
2021/07/27 03:54:33;;;;;;;15.80;7.38;;;;;;;;;;1484343;40;20032;-64
2021/07/27 03:55:35;;;;;;;12.52;7.85;;;;;;;;;;1484436;40;20114;-64
2021/07/27 03:56:37;;;;;;;13.35;7.55;;;;;;;;;;1484253;40;20021;-64
2021/07/27 03:57:40;;;;;;;17.88;8.02;;;;;;;;;;1484363;40;20064;-64
2021/07/27 03:58:42;;;;;;;14.10;7.38;;;;;;;;;;1484360;40;20024;-64
2021/07/27 03:59:46;;;;;;;13.43;8.15;;;;;;;;;;1484321;40;20032;-64
2021/07/27 04:00:48;;;;;;;15.77;7.68;;;;;;;;;;1484228;40;20021;-64
2021/07/27 04:01:49;;;;;;;14.90;7.13;;;;;;;;;;1484360;40;20025;-64
2021/07/27 04:02:51;;;;;;;12.30;7.60;;;;;;;;;;1484250;40;20061;-64
2021/07/27 04:03:51;;;;;;;16.15;7.85;;;;;;;;;;1484234;40;20025;-64
2021/07/27 04:04:55;;;;;;;13.25;8.00;;;;;;;;;;1484304;40;20021;-64
2021/07/27 04:05:57;;;;;;;14.80;8.23;;;;;;;;;;1483665;40;20295;-64
2021/07/27 04:06:58;;;;;;;13.88;7.80;;;;;;;;;;1483894;40;20021;-64
2021/07/27 04:08:00;;;;;;;13.65;7.80;;;;;;;;;;1484464;40;20277;-64
2021/07/27 04:09:01;;;;;;;14.93;7.38;;;;;;;;;;1484256;40;20021;-64
2021/07/27 04:10:05;;;;;;;14.43;6.90;;;;;;;;;;1484360;40;20290;-64
2021/07/27 04:11:07;;;;;;;19.35;8.13;;;;;;;;;;1484313;40;20025;-64
2021/07/27 04:12:08;;;;;;;14.02;7.43;;;;;;;;;;1484213;40;20404;-64
2021/07/27 04:13:11;;;;;;;11.18;8.02;;;;;;;;;;1484281;40;20032;-64
2021/07/27 04:14:12;;;;;;;14.73;8.15;;;;;;;;;;1484346;40;20280;-64
2021/07/27 04:15:14;;;;;;;16.38;7.88;;;;;;;;;;1484165;40;20060;-64
2021/07/27 04:16:15;;;;;;;15.77;7.15;;;;;;;;;;1484277;40;20021;-64
2021/07/27 04:17:18;;;;;;;17.25;8.00;;;;;;;;;;1484331;40;20025;-64
2021/07/27 04:18:19;;;;;;;15.23;7.80;;;;;;;;;;1484177;40;20025;-64
2021/07/27 04:19:20;;;;;;;18.38;8.63;;;;;;;;;;1484323;40;20118;-64
2021/07/27 04:20:21;;;;;;;15.35;8.27;;;;;;;;;;1484169;40;20036;-64
2021/07/27 04:21:23;;;;;;;14.77;8.27;;;;;;;;;;1484349;40;20025;-64
2021/07/27 04:22:24;;;;;;;14.82;7.85;;;;;;;;;;1484194;40;20029;-64
2021/07/27 04:23:27;;;;;;;14.82;7.90;;;;;;;;;;1483948;40;20445;-64
2021/07/27 04:24:28;;;;;;;15.68;7.95;;;;;;;;;;1484395;40;20041;-64
2021/07/27 04:25:31;;;;;;;13.95;8.20;;;;;;;;;;1484847;40;20036;-64
2021/07/27 04:26:31;;;;;;;14.65;7.78;;;;;;;;;;1484997;40;20021;-64
2021/07/27 04:27:33;;;;;;;11.98;7.70;;;;;;;;;;1485026;40;20376;-64
2021/07/27 04:28:35;;;;;;;14.68;8.07;;;;;;;;;;1484833;40;20025;-64
2021/07/27 04:29:37;;;;;;;17.58;8.65;;;;;;;;;;1485000;40;20284;-64
2021/07/27 04:30:38;;;;;;;15.70;7.88;;;;;;;;;;1484928;40;20032;-64
2021/07/27 04:31:41;;;;;;;14.57;7.72;;;;;;;;;;1484805;40;20051;-64
2021/07/27 04:32:42;;;;;;;15.73;8.40;;;;;;;;;;1484836;40;20402;-64
2021/07/27 04:33:44;;;;;;;15.20;7.95;;;;;;;;;;1484884;40;20106;-64
2021/07/27 04:34:45;;;;;;;13.02;7.68;;;;;;;;;;1484814;40;20031;-64
2021/07/27 04:35:47;;;;;;;14.65;8.27;;;;;;;;;;1484927;40;20063;-64
2021/07/27 04:36:48;;;;;;;15.02;8.07;;;;;;;;;;1484919;40;20032;-64
2021/07/27 04:37:51;;;;;;;21.13;9.25;;;;;;;;;;1484945;40;20029;-64
2021/07/27 04:38:52;;;;;;;17.85;8.70;;;;;;;;;;1484929;40;20387;-64
2021/07/27 04:39:54;;;;;;;15.77;7.80;;;;;;;;;;1484751;40;20106;-64
2021/07/27 04:40:55;;;;;;;16.02;8.13;;;;;;;;;;1484837;40;20407;-64
2021/07/27 04:41:57;;;;;;;15.02;8.32;;;;;;;;;;1484967;40;20041;-64
2021/07/27 04:42:58;;;;;;;17.23;8.52;;;;;;;;;;1484778;40;20025;-64
2021/07/27 04:44:02;;;;;;;16.27;7.93;;;;;;;;;;1484811;40;20384;-64
2021/07/27 04:45:03;;;;;;;13.00;7.70;;;;;;;;;;1484745;40;20020;-64
2021/07/27 04:46:05;;;;;;;14.98;8.32;;;;;;;;;;1484767;40;20035;-64
2021/07/27 04:47:06;;;;;;;14.52;7.80;;;;;;;;;;1484890;40;20032;-64
2021/07/27 04:48:08;;;;;;;15.52;7.50;;;;;;;;;;1484912;40;20028;-64
2021/07/27 04:49:09;;;;;;;15.77;7.97;;;;;;;;;;1484790;40;20021;-64
2021/07/27 04:50:11;;;;;;;15.55;8.32;;;;;;;;;;1484875;40;20291;-64
2021/07/27 04:51:13;;;;;;;15.23;8.02;;;;;;;;;;1484745;40;20022;-64
2021/07/27 04:52:20;;;;;;;14.32;7.70;;;;;;;;;;1484841;40;20024;-64
2021/07/27 04:53:23;;;;;;;15.48;7.63;;;;;;;;;;1484812;40;20393;-65
2021/07/27 04:54:30;;;;;;;14.05;8.13;;;;;;;;;;1484911;40;20029;-64
2021/07/27 04:55:31;;;;;;;14.73;7.60;;;;;;;;;;1484846;40;20037;-64
2021/07/27 04:56:33;;;;;;;13.60;8.10;;;;;;;;;;1484863;40;20061;-64
2021/07/27 04:57:34;;;;;;;12.45;7.60;;;;;;;;;;1484755;40;20036;-64
2021/07/27 04:58:36;;;;;;;16.05;7.38;;;;;;;;;;1484862;40;20029;-64
2021/07/27 04:59:38;;;;;;;14.23;8.00;;;;;;;;;;1484706;40;20021;-64
2021/07/27 05:00:40;;;;;;;14.40;7.50;;;;;;;;;;1484877;40;20032;-64
2021/07/27 05:01:41;;;;;;;14.38;7.63;;;;;;;;;;1484840;40;20025;-64
2021/07/27 05:02:42;;;;;;;13.60;7.70;;;;;;;;;;1484829;40;20020;-64
2021/07/27 05:03:44;;;;;;;12.73;7.68;;;;;;;;;;1484819;40;20028;-64
2021/07/27 05:04:45;;;;;;;15.90;8.02;;;;;;;;;;1484856;40;20025;-64
2021/07/27 05:05:47;;;;;;;16.30;8.40;;;;;;;;;;1484775;40;20407;-64
2021/07/27 05:06:49;;;;;;;17.08;8.40;;;;;;;;;;1484925;40;20031;-64
2021/07/27 05:07:50;;;;;;;15.52;7.90;;;;;;;;;;1484770;40;20029;-64
2021/07/27 05:08:52;;;;;;;15.85;8.52;;;;;;;;;;1484859;40;20292;-64
2021/07/27 05:09:53;;;;;;;15.48;7.93;;;;;;;;;;1484760;40;20029;-64
2021/07/27 05:10:55;;;;;;;15.75;7.65;;;;;;;;;;1484770;40;20024;-64
2021/07/27 05:11:56;;;;;;;14.45;8.02;;;;;;;;;;1484836;40;20032;-64
2021/07/27 05:12:58;;;;;;;18.25;8.63;;;;;;;;;;1484810;40;20402;-64
2021/07/27 05:13:59;;;;;;;14.35;7.30;;;;;;;;;;1484771;40;20411;-64
2021/07/27 05:15:02;;;;;;;14.02;7.78;;;;;;;;;;1484678;40;20032;-64
2021/07/27 05:16:05;;;;;;;18.50;8.57;;;;;;;;;;1484806;40;20025;-64
2021/07/27 05:17:11;;;;;;;12.45;7.93;;;;;;;;;;1484740;40;20025;-64
2021/07/27 05:18:15;;;;;;;18.05;8.05;;;;;;;;;;1484699;40;20493;-64
2021/07/27 05:19:25;;;;;;;12.07;7.60;;;;;;;;;;1484846;40;20036;-64
2021/07/27 05:20:27;;;;;;;10.80;6.95;;;;;;;;;;1484677;40;20048;-64
2021/07/27 05:21:29;;;;;;;13.38;6.90;;;;;;;;;;1484892;40;20109;-64
2021/07/27 05:22:29;;;;;;;15.32;8.05;;;;;;;;;;1484835;40;20028;-64
2021/07/27 05:23:32;;;;;;;12.43;7.13;;;;;;;;;;1484786;40;20029;-64
2021/07/27 05:24:32;;;;;;;13.55;7.78;;;;;;;;;;1484837;40;20033;-64
2021/07/27 05:25:34;;;;;;;13.80;8.05;;;;;;;;;;1484673;40;20417;-64
2021/07/27 05:26:35;;;;;;;15.68;8.35;;;;;;;;;;1484664;40;20494;-64
2021/07/27 05:27:37;;;;;;;17.73;8.68;;;;;;;;;;1484772;40;20114;-64
2021/07/27 05:28:38;;;;;;;14.82;8.13;;;;;;;;;;1484707;40;20415;-64
2021/07/27 05:29:40;;;;;;;18.40;8.10;;;;;;;;;;1484776;40;20378;-64
2021/07/27 05:30:42;;;;;;;18.65;8.38;;;;;;;;;;1484849;40;20025;-64
2021/07/27 05:31:44;;;;;;;17.00;8.02;;;;;;;;;;1484803;40;20055;-64
2021/07/27 05:32:45;;;;;;;14.85;8.05;;;;;;;;;;1484651;40;20021;-64
2021/07/27 05:33:46;;;;;;;12.75;8.02;;;;;;;;;;1484721;40;20040;-64
2021/07/27 05:34:47;;;;;;;16.60;7.93;;;;;;;;;;1484754;40;20029;-64
2021/07/27 05:35:49;;;;;;;15.27;7.68;;;;;;;;;;1484850;40;20063;-64
2021/07/27 05:36:50;;;;;;;12.52;7.70;;;;;;;;;;1484744;40;20025;-64
2021/07/27 05:37:52;;;;;;;14.32;8.05;;;;;;;;;;1484692;40;20025;-64
2021/07/27 05:38:52;;;;;;;17.52;8.43;;;;;;;;;;1484095;40;20021;-64
2021/07/27 05:39:55;;;;;;;12.43;7.68;;;;;;;;;;1484104;40;20027;-64
2021/07/27 05:40:56;;;;;;;13.07;7.25;;;;;;;;;;1484782;40;20469;-64
2021/07/27 05:41:58;;;;;;;15.45;8.32;;;;;;;;;;1484644;40;20024;-64
2021/07/27 05:42:59;;;;;;;16.65;8.23;;;;;;;;;;1484646;40;20032;-64
2021/07/27 05:44:01;;;;;;;14.88;8.13;;;;;;;;;;1484841;40;20292;-64
2021/07/27 05:45:01;;;;;;;11.77;8.07;;;;;;;;;;1484704;40;20036;-64
2021/07/27 05:46:06;;;;;;;13.48;8.02;;;;;;;;;;1484708;40;20300;-64
2021/07/27 05:47:06;;;;;;;12.98;7.75;;;;;;;;;;1484654;40;20025;-64
2021/07/27 05:48:08;;;;;;;13.23;8.00;;;;;;;;;;1484703;40;20380;-64
2021/07/27 05:49:10;;;;;;;15.98;7.55;;;;;;;;;;1484100;40;20017;-64
2021/07/27 05:50:12;;;;;;;15.52;8.32;;;;;;;;;;1484173;40;20413;-64
2021/07/27 05:51:14;;;;;;;15.35;7.55;;;;;;;;;;1484624;40;20076;-64
2021/07/27 05:52:16;;;;;;;15.68;9.00;;;;;;;;;;1484730;40;20082;-64
2021/07/27 05:53:17;;;;;;;18.17;8.73;;;;;;;;;;1484611;40;20029;-64
2021/07/27 05:54:19;;;;;;;13.70;7.95;;;;;;;;;;1484590;40;20021;-64
2021/07/27 05:55:20;;;;;;;14.18;8.23;;;;;;;;;;1484571;40;20059;-64
2021/07/27 05:56:23;;;;;;;16.95;9.90;;;;;;;;;;1484779;40;20033;-64
2021/07/27 05:57:25;;;;;;;14.63;8.00;;;;;;;;;;1484620;40;20032;-64
2021/07/27 05:58:25;;;;;;;13.35;7.93;;;;;;;;;;1484636;40;20021;-64
2021/07/27 05:59:27;;;;;;;19.83;8.90;;;;;;;;;;1484816;40;20033;-64
2021/07/27 06:00:28;;;;;;;17.38;8.68;;;;;;;;;;1484650;40;20288;-64
2021/07/27 06:01:31;;;;;;;15.60;9.07;;;;;;;;;;1484739;40;20021;-64
2021/07/27 06:02:33;;;;;;;14.30;8.68;;;;;;;;;;1484736;40;20290;-64
2021/07/27 06:03:34;;;;;;;16.27;8.65;;;;;;;;;;1484754;40;20021;-64
2021/07/27 06:04:35;;;;;;;15.40;8.15;;;;;;;;;;1484712;40;20048;-64
2021/07/27 06:05:38;;;;;;;15.85;8.77;;;;;;;;;;1484612;40;20028;-64
2021/07/27 06:06:39;;;;;;;18.17;11.00;;;;;;;;;;1484558;40;20035;-64
2021/07/27 06:07:41;;;;;;;18.08;9.57;;;;;;;;;;1484750;40;20032;-64
2021/07/27 06:08:42;;;;;;;16.58;9.05;;;;;;;;;;1484736;40;20025;-64
2021/07/27 06:09:44;;;;;;;16.58;9.00;;;;;;;;;;1484569;40;20121;-64
2021/07/27 06:10:44;;;;;;;21.92;11.05;;;;;;;;;;1484591;40;20400;-64
2021/07/27 06:11:46;;;;;;;15.93;9.75;;;;;;;;;;1484055;40;20021;-64
2021/07/27 06:12:47;;;;;;;20.45;10.63;;;;;;;;;;1484105;40;20388;-64
2021/07/27 06:13:49;;;;;;;18.05;10.05;;;;;;;;;;1484711;40;20029;-64
2021/07/27 06:14:50;;;;;;;19.85;9.90;;;;;;;;;;1484690;40;20024;-64
2021/07/27 06:15:51;;;;;;;19.92;10.05;;;;;;;;;;1484653;40;20031;-64
2021/07/27 06:16:54;;;;;;;20.27;10.80;;;;;;;;;;1484643;40;20032;-64
2021/07/27 06:17:55;;;;;;;17.83;10.02;;;;;;;;;;1484793;40;20025;-64
2021/07/27 06:18:57;;;;;;;16.58;9.82;;;;;;;;;;1484612;40;20029;-64
2021/07/27 06:19:58;;;;;;;15.57;9.57;;;;;;;;;;1484039;40;20021;-64
2021/07/27 06:21:00;;;;;;;16.98;9.60;;;;;;;;;;1484153;40;20069;-64
2021/07/27 06:22:01;;;;;;;20.42;10.63;;;;;;;;;;1484550;40;20021;-64
2021/07/27 06:23:02;;;;;;;18.80;9.80;;;;;;;;;;1484646;40;20032;-64
2021/07/27 06:24:04;;;;;;;18.23;10.23;;;;;;;;;;1484757;40;20035;-64
2021/07/27 06:25:10;;;;;;;19.10;9.63;;;;;;;;;;1484563;40;20407;-64
2021/07/27 06:26:11;;;;;;;17.23;9.70;;;;;;;;;;1484595;40;20352;-64
2021/07/27 06:27:13;;;;;;;19.08;10.65;;;;;;;;;;1484569;40;20313;-64